sensor_id;sensor_type;location;lat;lon;timestamp;P1;durP1;ratioP1;P2;durP2;ratioP2
16179;SDS011;8196;49.428;10.906;2023-03-20T00:02:10;4.55;;;4.15;;
16179;SDS011;8196;49.428;10.906;2023-03-20T00:04:44;4.65;;;3.95;;
16179;SDS011;8196;49.428;10.906;2023-03-20T00:07:11;5.15;;;3.88;;
16179;SDS011;8196;49.428;10.906;2023-03-20T00:09:38;3.85;;;3.53;;
16179;SDS011;8196;49.428;10.906;2023-03-20T00:12:05;4.20;;;3.80;;
16179;SDS011;8196;49.428;10.906;2023-03-20T00:14:32;3.53;;;3.22;;
16179;SDS011;8196;49.428;10.906;2023-03-20T00:16:59;4.10;;;3.60;;
16179;SDS011;8196;49.428;10.906;2023-03-20T00:19:27;4.53;;;3.78;;
16179;SDS011;8196;49.428;10.906;2023-03-20T00:21:56;4.00;;;3.63;;
16179;SDS011;8196;49.428;10.906;2023-03-20T00:24:23;3.90;;;3.42;;
16179;SDS011;8196;49.428;10.906;2023-03-20T00:26:51;4.07;;;3.75;;
16179;SDS011;8196;49.428;10.906;2023-03-20T00:29:21;4.63;;;3.72;;
16179;SDS011;8196;49.428;10.906;2023-03-20T00:31:51;4.22;;;3.83;;
16179;SDS011;8196;49.428;10.906;2023-03-20T00:34:20;5.40;;;4.40;;
16179;SDS011;8196;49.428;10.906;2023-03-20T00:36:50;4.35;;;3.72;;
16179;SDS011;8196;49.428;10.906;2023-03-20T00:39:17;5.15;;;4.30;;
16179;SDS011;8196;49.428;10.906;2023-03-20T00:41:49;3.85;;;3.53;;
16179;SDS011;8196;49.428;10.906;2023-03-20T00:46:49;5.20;;;4.13;;
16179;SDS011;8196;49.428;10.906;2023-03-20T00:49:20;6.00;;;4.15;;
16179;SDS011;8196;49.428;10.906;2023-03-20T00:51:49;4.90;;;4.40;;
16179;SDS011;8196;49.428;10.906;2023-03-20T00:54:16;4.32;;;3.92;;
16179;SDS011;8196;49.428;10.906;2023-03-20T00:56:44;5.18;;;4.15;;
16179;SDS011;8196;49.428;10.906;2023-03-20T00:59:19;6.68;;;4.25;;
16179;SDS011;8196;49.428;10.906;2023-03-20T01:01:48;4.93;;;4.13;;
16179;SDS011;8196;49.428;10.906;2023-03-20T01:04:17;6.13;;;4.07;;
16179;SDS011;8196;49.428;10.906;2023-03-20T01:06:45;3.92;;;3.50;;
16179;SDS011;8196;49.428;10.906;2023-03-20T01:09:12;5.82;;;3.90;;
16179;SDS011;8196;49.428;10.906;2023-03-20T01:11:39;5.03;;;4.13;;
16179;SDS011;8196;49.428;10.906;2023-03-20T01:14:11;5.00;;;4.10;;
16179;SDS011;8196;49.428;10.906;2023-03-20T01:16:39;4.75;;;4.22;;
16179;SDS011;8196;49.428;10.906;2023-03-20T01:19:09;5.82;;;4.20;;
16179;SDS011;8196;49.428;10.906;2023-03-20T01:21:38;4.50;;;3.67;;
16179;SDS011;8196;49.428;10.906;2023-03-20T01:24:05;5.63;;;4.65;;
16179;SDS011;8196;49.428;10.906;2023-03-20T01:26:33;6.28;;;3.88;;
16179;SDS011;8196;49.428;10.906;2023-03-20T01:29:02;6.05;;;4.43;;
16179;SDS011;8196;49.428;10.906;2023-03-20T01:31:30;5.88;;;3.90;;
16179;SDS011;8196;49.428;10.906;2023-03-20T01:33:57;4.88;;;4.43;;
16179;SDS011;8196;49.428;10.906;2023-03-20T01:36:24;5.53;;;4.15;;
16179;SDS011;8196;49.428;10.906;2023-03-20T01:38:53;5.20;;;4.10;;
16179;SDS011;8196;49.428;10.906;2023-03-20T01:41:22;5.93;;;4.20;;
16179;SDS011;8196;49.428;10.906;2023-03-20T01:43:51;4.70;;;4.20;;
16179;SDS011;8196;49.428;10.906;2023-03-20T01:46:23;4.68;;;4.25;;
16179;SDS011;8196;49.428;10.906;2023-03-20T01:51:24;5.38;;;4.60;;
16179;SDS011;8196;49.428;10.906;2023-03-20T01:56:40;4.47;;;4.03;;
16179;SDS011;8196;49.428;10.906;2023-03-20T01:59:23;4.70;;;4.30;;
16179;SDS011;8196;49.428;10.906;2023-03-20T02:01:54;6.78;;;4.40;;
16179;SDS011;8196;49.428;10.906;2023-03-20T02:04:23;4.40;;;4.00;;
16179;SDS011;8196;49.428;10.906;2023-03-20T02:06:54;6.80;;;4.50;;
16179;SDS011;8196;49.428;10.906;2023-03-20T02:09:22;7.18;;;4.68;;
16179;SDS011;8196;49.428;10.906;2023-03-20T02:11:48;5.78;;;4.55;;
16179;SDS011;8196;49.428;10.906;2023-03-20T02:14:16;6.10;;;4.47;;
16179;SDS011;8196;49.428;10.906;2023-03-20T02:16:43;5.60;;;4.22;;
16179;SDS011;8196;49.428;10.906;2023-03-20T02:19:14;7.28;;;4.60;;
16179;SDS011;8196;49.428;10.906;2023-03-20T02:22:05;7.63;;;4.00;;
16179;SDS011;8196;49.428;10.906;2023-03-20T02:27:52;5.80;;;4.53;;
16179;SDS011;8196;49.428;10.906;2023-03-20T02:39:55;5.47;;;4.82;;
16179;SDS011;8196;49.428;10.906;2023-03-20T02:47:58;8.15;;;5.57;;
16179;SDS011;8196;49.428;10.906;2023-03-20T02:50:36;7.72;;;4.93;;
16179;SDS011;8196;49.428;10.906;2023-03-20T02:53:26;7.10;;;5.43;;
16179;SDS011;8196;49.428;10.906;2023-03-20T03:01:49;7.47;;;6.05;;
16179;SDS011;8196;49.428;10.906;2023-03-20T03:04:22;7.63;;;5.85;;
16179;SDS011;8196;49.428;10.906;2023-03-20T03:06:53;8.15;;;6.68;;
16179;SDS011;8196;49.428;10.906;2023-03-20T03:12:00;7.75;;;6.43;;
16179;SDS011;8196;49.428;10.906;2023-03-20T03:17:03;8.07;;;6.75;;
16179;SDS011;8196;49.428;10.906;2023-03-20T03:19:32;7.43;;;6.35;;
16179;SDS011;8196;49.428;10.906;2023-03-20T03:22:02;8.50;;;6.15;;
16179;SDS011;8196;49.428;10.906;2023-03-20T03:24:31;7.70;;;6.05;;
16179;SDS011;8196;49.428;10.906;2023-03-20T03:30:02;6.57;;;5.68;;
16179;SDS011;8196;49.428;10.906;2023-03-20T03:32:34;7.65;;;6.13;;
16179;SDS011;8196;49.428;10.906;2023-03-20T03:35:06;8.43;;;5.97;;
16179;SDS011;8196;49.428;10.906;2023-03-20T03:37:45;7.70;;;6.45;;
16179;SDS011;8196;49.428;10.906;2023-03-20T03:45:38;8.07;;;6.22;;
16179;SDS011;8196;49.428;10.906;2023-03-20T03:48:16;7.97;;;6.93;;
16179;SDS011;8196;49.428;10.906;2023-03-20T03:50:47;6.32;;;5.60;;
16179;SDS011;8196;49.428;10.906;2023-03-20T03:53:20;8.38;;;6.03;;
16179;SDS011;8196;49.428;10.906;2023-03-20T03:55:51;9.05;;;5.82;;
16179;SDS011;8196;49.428;10.906;2023-03-20T03:58:23;7.80;;;6.25;;
16179;SDS011;8196;49.428;10.906;2023-03-20T04:00:54;7.97;;;7.10;;
16179;SDS011;8196;49.428;10.906;2023-03-20T04:03:24;7.88;;;6.28;;
16179;SDS011;8196;49.428;10.906;2023-03-20T04:05:56;8.73;;;7.22;;
16179;SDS011;8196;49.428;10.906;2023-03-20T04:08:24;10.40;;;7.85;;
16179;SDS011;8196;49.428;10.906;2023-03-20T04:10:51;9.00;;;7.53;;
16179;SDS011;8196;49.428;10.906;2023-03-20T04:13:17;10.40;;;8.35;;
16179;SDS011;8196;49.428;10.906;2023-03-20T04:15:44;12.05;;;8.13;;
16179;SDS011;8196;49.428;10.906;2023-03-20T04:18:13;12.65;;;8.63;;
16179;SDS011;8196;49.428;10.906;2023-03-20T04:20:43;10.52;;;7.88;;
16179;SDS011;8196;49.428;10.906;2023-03-20T04:23:12;13.38;;;9.00;;
16179;SDS011;8196;49.428;10.906;2023-03-20T04:25:39;12.38;;;8.95;;
16179;SDS011;8196;49.428;10.906;2023-03-20T04:28:06;11.23;;;8.75;;
16179;SDS011;8196;49.428;10.906;2023-03-20T04:30:33;14.45;;;9.98;;
16179;SDS011;8196;49.428;10.906;2023-03-20T04:32:59;13.88;;;9.50;;
16179;SDS011;8196;49.428;10.906;2023-03-20T04:35:26;13.93;;;9.13;;
16179;SDS011;8196;49.428;10.906;2023-03-20T04:37:53;11.98;;;9.05;;
16179;SDS011;8196;49.428;10.906;2023-03-20T04:40:20;18.13;;;10.38;;
16179;SDS011;8196;49.428;10.906;2023-03-20T04:42:47;14.10;;;10.20;;
16179;SDS011;8196;49.428;10.906;2023-03-20T04:45:13;14.57;;;9.90;;
16179;SDS011;8196;49.428;10.906;2023-03-20T04:47:40;15.52;;;10.40;;
16179;SDS011;8196;49.428;10.906;2023-03-20T04:50:07;13.77;;;9.32;;
16179;SDS011;8196;49.428;10.906;2023-03-20T04:52:34;14.57;;;10.57;;
16179;SDS011;8196;49.428;10.906;2023-03-20T04:55:01;14.82;;;10.98;;
16179;SDS011;8196;49.428;10.906;2023-03-20T04:57:27;17.02;;;12.27;;
16179;SDS011;8196;49.428;10.906;2023-03-20T04:59:58;19.05;;;13.00;;
16179;SDS011;8196;49.428;10.906;2023-03-20T05:02:25;19.77;;;13.38;;
16179;SDS011;8196;49.428;10.906;2023-03-20T05:04:52;17.00;;;11.48;;
16179;SDS011;8196;49.428;10.906;2023-03-20T05:07:19;15.25;;;10.57;;
16179;SDS011;8196;49.428;10.906;2023-03-20T05:09:46;15.40;;;10.75;;
16179;SDS011;8196;49.428;10.906;2023-03-20T05:12:13;17.23;;;11.35;;
16179;SDS011;8196;49.428;10.906;2023-03-20T05:14:40;16.23;;;12.32;;
16179;SDS011;8196;49.428;10.906;2023-03-20T05:17:07;16.83;;;12.15;;
16179;SDS011;8196;49.428;10.906;2023-03-20T05:19:34;19.45;;;12.93;;
16179;SDS011;8196;49.428;10.906;2023-03-20T05:22:00;15.48;;;11.90;;
16179;SDS011;8196;49.428;10.906;2023-03-20T05:24:27;18.25;;;12.98;;
16179;SDS011;8196;49.428;10.906;2023-03-20T05:26:54;18.25;;;12.43;;
16179;SDS011;8196;49.428;10.906;2023-03-20T05:29:21;18.95;;;12.73;;
16179;SDS011;8196;49.428;10.906;2023-03-20T05:31:48;15.70;;;11.20;;
16179;SDS011;8196;49.428;10.906;2023-03-20T05:34:15;14.38;;;10.70;;
16179;SDS011;8196;49.428;10.906;2023-03-20T05:36:41;14.45;;;10.63;;
16179;SDS011;8196;49.428;10.906;2023-03-20T05:39:08;15.35;;;10.63;;
16179;SDS011;8196;49.428;10.906;2023-03-20T05:41:35;14.27;;;10.98;;
16179;SDS011;8196;49.428;10.906;2023-03-20T05:44:02;15.05;;;10.60;;
16179;SDS011;8196;49.428;10.906;2023-03-20T05:46:29;14.68;;;10.93;;
16179;SDS011;8196;49.428;10.906;2023-03-20T05:48:56;16.50;;;11.98;;
16179;SDS011;8196;49.428;10.906;2023-03-20T05:51:22;14.68;;;10.77;;
16179;SDS011;8196;49.428;10.906;2023-03-20T05:53:49;14.40;;;10.75;;
16179;SDS011;8196;49.428;10.906;2023-03-20T05:56:16;15.02;;;10.35;;
16179;SDS011;8196;49.428;10.906;2023-03-20T05:58:42;16.33;;;9.90;;
16179;SDS011;8196;49.428;10.906;2023-03-20T06:01:09;15.23;;;10.00;;
16179;SDS011;8196;49.428;10.906;2023-03-20T06:03:36;17.13;;;10.38;;
16179;SDS011;8196;49.428;10.906;2023-03-20T06:06:03;13.48;;;10.52;;
16179;SDS011;8196;49.428;10.906;2023-03-20T06:08:30;13.05;;;9.20;;
16179;SDS011;8196;49.428;10.906;2023-03-20T06:10:57;14.52;;;9.70;;
16179;SDS011;8196;49.428;10.906;2023-03-20T06:13:23;13.00;;;10.07;;
16179;SDS011;8196;49.428;10.906;2023-03-20T06:15:50;13.35;;;9.60;;
16179;SDS011;8196;49.428;10.906;2023-03-20T06:18:17;13.43;;;9.50;;
16179;SDS011;8196;49.428;10.906;2023-03-20T06:20:44;13.27;;;9.88;;
16179;SDS011;8196;49.428;10.906;2023-03-20T06:23:11;14.07;;;10.27;;
16179;SDS011;8196;49.428;10.906;2023-03-20T06:25:38;14.13;;;10.07;;
16179;SDS011;8196;49.428;10.906;2023-03-20T06:28:05;14.48;;;9.82;;
16179;SDS011;8196;49.428;10.906;2023-03-20T06:30:32;12.07;;;8.88;;
16179;SDS011;8196;49.428;10.906;2023-03-20T06:32:58;11.43;;;8.77;;
16179;SDS011;8196;49.428;10.906;2023-03-20T06:35:25;13.63;;;9.05;;
16179;SDS011;8196;49.428;10.906;2023-03-20T06:37:56;12.93;;;8.48;;
16179;SDS011;8196;49.428;10.906;2023-03-20T06:40:23;10.05;;;7.72;;
16179;SDS011;8196;49.428;10.906;2023-03-20T06:42:52;11.00;;;8.27;;
16179;SDS011;8196;49.428;10.906;2023-03-20T06:45:20;11.52;;;8.30;;
16179;SDS011;8196;49.428;10.906;2023-03-20T06:47:47;10.18;;;7.70;;
16179;SDS011;8196;49.428;10.906;2023-03-20T06:50:14;10.50;;;7.90;;
16179;SDS011;8196;49.428;10.906;2023-03-20T06:52:41;10.73;;;7.93;;
16179;SDS011;8196;49.428;10.906;2023-03-20T06:55:08;8.77;;;6.32;;
16179;SDS011;8196;49.428;10.906;2023-03-20T06:57:34;11.85;;;7.13;;
16179;SDS011;8196;49.428;10.906;2023-03-20T07:00:02;9.13;;;7.03;;
16179;SDS011;8196;49.428;10.906;2023-03-20T07:02:30;9.13;;;7.07;;
16179;SDS011;8196;49.428;10.906;2023-03-20T07:04:57;8.02;;;6.50;;
16179;SDS011;8196;49.428;10.906;2023-03-20T07:07:24;8.07;;;6.40;;
16179;SDS011;8196;49.428;10.906;2023-03-20T07:09:51;8.23;;;6.30;;
16179;SDS011;8196;49.428;10.906;2023-03-20T07:12:17;9.23;;;6.95;;
16179;SDS011;8196;49.428;10.906;2023-03-20T07:14:45;8.52;;;6.13;;
16179;SDS011;8196;49.428;10.906;2023-03-20T07:17:12;7.85;;;5.70;;
16179;SDS011;8196;49.428;10.906;2023-03-20T07:19:38;7.10;;;5.38;;
16179;SDS011;8196;49.428;10.906;2023-03-20T07:22:07;6.10;;;5.43;;
16179;SDS011;8196;49.428;10.906;2023-03-20T07:24:40;8.65;;;5.28;;
16179;SDS011;8196;49.428;10.906;2023-03-20T07:27:07;9.23;;;6.07;;
16179;SDS011;8196;49.428;10.906;2023-03-20T07:29:33;7.00;;;5.43;;
16179;SDS011;8196;49.428;10.906;2023-03-20T07:32:02;5.65;;;5.00;;
16179;SDS011;8196;49.428;10.906;2023-03-20T07:34:29;7.65;;;5.20;;
16179;SDS011;8196;49.428;10.906;2023-03-20T07:36:55;6.18;;;5.05;;
16179;SDS011;8196;49.428;10.906;2023-03-20T07:39:22;8.55;;;5.15;;
16179;SDS011;8196;49.428;10.906;2023-03-20T07:41:49;5.35;;;4.85;;
16179;SDS011;8196;49.428;10.906;2023-03-20T07:44:15;8.10;;;4.95;;
16179;SDS011;8196;49.428;10.906;2023-03-20T07:46:44;6.30;;;4.70;;
16179;SDS011;8196;49.428;10.906;2023-03-20T07:49:12;5.22;;;4.60;;
16179;SDS011;8196;49.428;10.906;2023-03-20T07:51:39;5.93;;;4.60;;
16179;SDS011;8196;49.428;10.906;2023-03-20T07:54:06;6.47;;;4.78;;
16179;SDS011;8196;49.428;10.906;2023-03-20T07:56:33;4.75;;;4.18;;
16179;SDS011;8196;49.428;10.906;2023-03-20T07:59:00;5.45;;;4.35;;
16179;SDS011;8196;49.428;10.906;2023-03-20T08:01:26;7.15;;;4.60;;
16179;SDS011;8196;49.428;10.906;2023-03-20T08:03:53;4.65;;;3.78;;
16179;SDS011;8196;49.428;10.906;2023-03-20T08:06:20;4.80;;;3.90;;
16179;SDS011;8196;49.428;10.906;2023-03-20T08:08:47;4.90;;;4.07;;
16179;SDS011;8196;49.428;10.906;2023-03-20T08:11:17;3.78;;;3.28;;
16179;SDS011;8196;49.428;10.906;2023-03-20T08:13:45;6.07;;;4.65;;
16179;SDS011;8196;49.428;10.906;2023-03-20T08:16:11;5.47;;;4.55;;
16179;SDS011;8196;49.428;10.906;2023-03-20T08:18:38;6.55;;;4.07;;
16179;SDS011;8196;49.428;10.906;2023-03-20T08:21:05;4.68;;;4.18;;
16179;SDS011;8196;49.428;10.906;2023-03-20T08:23:32;4.45;;;3.63;;
16179;SDS011;8196;49.428;10.906;2023-03-20T08:26:00;5.47;;;3.80;;
16179;SDS011;8196;49.428;10.906;2023-03-20T08:28:27;5.05;;;3.55;;
16179;SDS011;8196;49.428;10.906;2023-03-20T08:31:12;4.63;;;3.47;;
16179;SDS011;8196;49.428;10.906;2023-03-20T08:33:39;4.13;;;3.22;;
16179;SDS011;8196;49.428;10.906;2023-03-20T08:36:06;4.47;;;3.38;;
16179;SDS011;8196;49.428;10.906;2023-03-20T08:38:33;4.88;;;4.20;;
16179;SDS011;8196;49.428;10.906;2023-03-20T08:41:01;4.45;;;3.85;;
16179;SDS011;8196;49.428;10.906;2023-03-20T08:43:28;4.35;;;3.25;;
16179;SDS011;8196;49.428;10.906;2023-03-20T08:45:54;3.88;;;3.45;;
16179;SDS011;8196;49.428;10.906;2023-03-20T08:48:21;4.80;;;3.70;;
16179;SDS011;8196;49.428;10.906;2023-03-20T08:50:48;4.30;;;3.40;;
16179;SDS011;8196;49.428;10.906;2023-03-20T08:53:15;3.67;;;3.30;;
16179;SDS011;8196;49.428;10.906;2023-03-20T08:55:50;5.05;;;3.90;;
16179;SDS011;8196;49.428;10.906;2023-03-20T08:58:17;4.90;;;3.78;;
16179;SDS011;8196;49.428;10.906;2023-03-20T09:00:45;3.42;;;2.78;;
16179;SDS011;8196;49.428;10.906;2023-03-20T09:03:13;4.65;;;3.53;;
16179;SDS011;8196;49.428;10.906;2023-03-20T09:05:43;4.97;;;3.33;;
16179;SDS011;8196;49.428;10.906;2023-03-20T09:08:11;3.80;;;3.38;;
16179;SDS011;8196;49.428;10.906;2023-03-20T09:10:38;3.92;;;3.42;;
16179;SDS011;8196;49.428;10.906;2023-03-20T09:13:06;4.00;;;3.20;;
16179;SDS011;8196;49.428;10.906;2023-03-20T09:15:52;5.43;;;3.47;;
16179;SDS011;8196;49.428;10.906;2023-03-20T09:18:20;7.03;;;3.35;;
16179;SDS011;8196;49.428;10.906;2023-03-20T09:20:47;3.80;;;3.05;;
16179;SDS011;8196;49.428;10.906;2023-03-20T09:23:14;4.95;;;3.38;;
16179;SDS011;8196;49.428;10.906;2023-03-20T09:25:41;4.95;;;3.30;;
16179;SDS011;8196;49.428;10.906;2023-03-20T09:28:08;4.03;;;2.92;;
16179;SDS011;8196;49.428;10.906;2023-03-20T09:30:35;5.78;;;3.05;;
16179;SDS011;8196;49.428;10.906;2023-03-20T09:33:02;3.30;;;2.75;;
16179;SDS011;8196;49.428;10.906;2023-03-20T09:35:29;3.30;;;2.67;;
16179;SDS011;8196;49.428;10.906;2023-03-20T09:37:56;3.33;;;2.78;;
16179;SDS011;8196;49.428;10.906;2023-03-20T09:46:02;3.10;;;2.80;;
16179;SDS011;8196;49.428;10.906;2023-03-20T09:48:52;3.90;;;2.70;;
16179;SDS011;8196;49.428;10.906;2023-03-20T09:51:47;2.60;;;2.15;;
16179;SDS011;8196;49.428;10.906;2023-03-20T09:54:23;2.65;;;2.30;;
16179;SDS011;8196;49.428;10.906;2023-03-20T09:56:54;3.00;;;2.67;;
16179;SDS011;8196;49.428;10.906;2023-03-20T09:59:23;3.17;;;2.70;;
16179;SDS011;8196;49.428;10.906;2023-03-20T10:01:53;4.68;;;2.95;;
16179;SDS011;8196;49.428;10.906;2023-03-20T10:04:25;5.93;;;3.17;;
16179;SDS011;8196;49.428;10.906;2023-03-20T10:06:55;3.08;;;2.65;;
16179;SDS011;8196;49.428;10.906;2023-03-20T10:09:24;3.35;;;2.65;;
16179;SDS011;8196;49.428;10.906;2023-03-20T10:12:03;3.88;;;2.67;;
16179;SDS011;8196;49.428;10.906;2023-03-20T10:17:34;4.38;;;2.78;;
16179;SDS011;8196;49.428;10.906;2023-03-20T10:20:11;2.78;;;2.30;;
16179;SDS011;8196;49.428;10.906;2023-03-20T10:22:41;3.42;;;2.78;;
16179;SDS011;8196;49.428;10.906;2023-03-20T10:25:27;4.75;;;3.13;;
16179;SDS011;8196;49.428;10.906;2023-03-20T10:28:01;4.18;;;3.20;;
16179;SDS011;8196;49.428;10.906;2023-03-20T10:33:47;2.78;;;2.35;;
16179;SDS011;8196;49.428;10.906;2023-03-20T10:41:48;3.08;;;2.78;;
16179;SDS011;8196;49.428;10.906;2023-03-20T10:44:25;3.90;;;2.90;;
16179;SDS011;8196;49.428;10.906;2023-03-20T10:46:53;3.05;;;2.75;;
16179;SDS011;8196;49.428;10.906;2023-03-20T10:49:42;2.75;;;2.45;;
16179;SDS011;8196;49.428;10.906;2023-03-20T10:52:16;3.08;;;2.40;;
16179;SDS011;8196;49.428;10.906;2023-03-20T10:54:48;3.45;;;2.50;;
16179;SDS011;8196;49.428;10.906;2023-03-20T10:57:21;3.05;;;2.75;;
16179;SDS011;8196;49.428;10.906;2023-03-20T10:59:50;3.28;;;2.63;;
16179;SDS011;8196;49.428;10.906;2023-03-20T11:02:21;4.30;;;2.60;;
16179;SDS011;8196;49.428;10.906;2023-03-20T11:04:51;4.28;;;3.20;;
16179;SDS011;8196;49.428;10.906;2023-03-20T11:07:34;3.80;;;2.95;;
16179;SDS011;8196;49.428;10.906;2023-03-20T11:12:31;4.13;;;2.85;;
16179;SDS011;8196;49.428;10.906;2023-03-20T11:15:52;6.72;;;2.85;;
16179;SDS011;8196;49.428;10.906;2023-03-20T11:20:18;3.33;;;3.00;;
16179;SDS011;8196;49.428;10.906;2023-03-20T11:22:46;3.15;;;2.72;;
16179;SDS011;8196;49.428;10.906;2023-03-20T11:25:21;2.97;;;2.20;;
16179;SDS011;8196;49.428;10.906;2023-03-20T11:27:54;2.85;;;2.33;;
16179;SDS011;8196;49.428;10.906;2023-03-20T11:30:21;2.20;;;1.98;;
16179;SDS011;8196;49.428;10.906;2023-03-20T11:32:48;3.63;;;2.35;;
16179;SDS011;8196;49.428;10.906;2023-03-20T11:37:52;3.10;;;2.40;;
16179;SDS011;8196;49.428;10.906;2023-03-20T11:40:21;2.47;;;2.28;;
16179;SDS011;8196;49.428;10.906;2023-03-20T11:42:51;2.10;;;1.92;;
16179;SDS011;8196;49.428;10.906;2023-03-20T11:45:20;3.30;;;2.28;;
16179;SDS011;8196;49.428;10.906;2023-03-20T11:47:50;1.75;;;1.65;;
16179;SDS011;8196;49.428;10.906;2023-03-20T11:50:23;3.67;;;1.80;;
16179;SDS011;8196;49.428;10.906;2023-03-20T11:52:56;2.65;;;1.98;;
16179;SDS011;8196;49.428;10.906;2023-03-20T11:57:50;2.15;;;1.80;;
16179;SDS011;8196;49.428;10.906;2023-03-20T12:00:22;1.80;;;1.70;;
16179;SDS011;8196;49.428;10.906;2023-03-20T12:02:51;2.00;;;1.65;;
16179;SDS011;8196;49.428;10.906;2023-03-20T12:07:52;2.80;;;1.80;;
16179;SDS011;8196;49.428;10.906;2023-03-20T12:10:23;2.10;;;1.92;;
16179;SDS011;8196;49.428;10.906;2023-03-20T12:13:01;2.50;;;2.13;;
16179;SDS011;8196;49.428;10.906;2023-03-20T12:15:33;2.47;;;2.28;;
16179;SDS011;8196;49.428;10.906;2023-03-20T12:18:11;2.50;;;2.30;;
16179;SDS011;8196;49.428;10.906;2023-03-20T12:23:23;2.05;;;1.75;;
16179;SDS011;8196;49.428;10.906;2023-03-20T12:26:13;5.00;;;1.67;;
16179;SDS011;8196;49.428;10.906;2023-03-20T12:28:46;2.17;;;1.65;;
16179;SDS011;8196;49.428;10.906;2023-03-20T12:31:22;1.88;;;1.70;;
16179;SDS011;8196;49.428;10.906;2023-03-20T12:34:00;2.80;;;1.85;;
16179;SDS011;8196;49.428;10.906;2023-03-20T12:36:37;2.58;;;2.00;;
16179;SDS011;8196;49.428;10.906;2023-03-20T12:39:10;2.45;;;2.20;;
16179;SDS011;8196;49.428;10.906;2023-03-20T12:41:53;3.17;;;2.40;;
16179;SDS011;8196;49.428;10.906;2023-03-20T12:44:37;2.33;;;1.95;;
16179;SDS011;8196;49.428;10.906;2023-03-20T12:47:32;2.05;;;1.95;;
16179;SDS011;8196;49.428;10.906;2023-03-20T12:52:48;3.03;;;2.47;;
16179;SDS011;8196;49.428;10.906;2023-03-20T13:00:41;3.05;;;1.70;;
16179;SDS011;8196;49.428;10.906;2023-03-20T13:06:19;2.65;;;2.42;;
16179;SDS011;8196;49.428;10.906;2023-03-20T13:09:13;2.53;;;2.17;;
16179;SDS011;8196;49.428;10.906;2023-03-20T13:19:26;2.42;;;2.22;;
16179;SDS011;8196;49.428;10.906;2023-03-20T13:22:05;2.17;;;1.98;;
16179;SDS011;8196;49.428;10.906;2023-03-20T13:24:40;2.13;;;1.92;;
16179;SDS011;8196;49.428;10.906;2023-03-20T13:29:49;2.75;;;2.05;;
16179;SDS011;8196;49.428;10.906;2023-03-20T13:32:28;2.22;;;2.03;;
16179;SDS011;8196;49.428;10.906;2023-03-20T13:37:37;2.45;;;2.05;;
16179;SDS011;8196;49.428;10.906;2023-03-20T13:42:41;2.90;;;2.42;;
16179;SDS011;8196;49.428;10.906;2023-03-20T13:45:18;2.40;;;2.15;;
16179;SDS011;8196;49.428;10.906;2023-03-20T13:47:55;2.53;;;2.10;;
16179;SDS011;8196;49.428;10.906;2023-03-20T13:50:30;2.60;;;2.17;;
16179;SDS011;8196;49.428;10.906;2023-03-20T13:53:02;3.20;;;2.42;;
16179;SDS011;8196;49.428;10.906;2023-03-20T13:55:42;2.67;;;2.47;;
16179;SDS011;8196;49.428;10.906;2023-03-20T13:58:27;2.65;;;2.25;;
16179;SDS011;8196;49.428;10.906;2023-03-20T14:01:04;2.78;;;2.22;;
16179;SDS011;8196;49.428;10.906;2023-03-20T14:03:37;3.30;;;3.00;;
16179;SDS011;8196;49.428;10.906;2023-03-20T14:09:04;3.20;;;2.60;;
16179;SDS011;8196;49.428;10.906;2023-03-20T14:11:53;3.05;;;1.92;;
16179;SDS011;8196;49.428;10.906;2023-03-20T14:14:25;2.78;;;2.50;;
16179;SDS011;8196;49.428;10.906;2023-03-20T14:17:06;2.70;;;2.50;;
16179;SDS011;8196;49.428;10.906;2023-03-20T14:19:40;2.67;;;2.28;;
16179;SDS011;8196;49.428;10.906;2023-03-20T14:22:13;4.18;;;2.70;;
16179;SDS011;8196;49.428;10.906;2023-03-20T14:24:43;2.63;;;2.42;;
16179;SDS011;8196;49.428;10.906;2023-03-20T14:27:17;3.85;;;3.25;;
16179;SDS011;8196;49.428;10.906;2023-03-20T14:30:33;3.88;;;3.40;;
16179;SDS011;8196;49.428;10.906;2023-03-20T14:35:34;3.42;;;2.88;;
16179;SDS011;8196;49.428;10.906;2023-03-20T14:40:38;3.45;;;3.03;;
16179;SDS011;8196;49.428;10.906;2023-03-20T14:43:14;3.97;;;3.35;;
16179;SDS011;8196;49.428;10.906;2023-03-20T14:45:46;3.28;;;2.90;;
16179;SDS011;8196;49.428;10.906;2023-03-20T14:48:37;3.25;;;2.95;;
16179;SDS011;8196;49.428;10.906;2023-03-20T14:54:23;3.90;;;3.50;;
16179;SDS011;8196;49.428;10.906;2023-03-20T14:56:52;4.22;;;3.67;;
16179;SDS011;8196;49.428;10.906;2023-03-20T14:59:20;4.65;;;3.60;;
16179;SDS011;8196;49.428;10.906;2023-03-20T15:09:22;4.75;;;4.00;;
16179;SDS011;8196;49.428;10.906;2023-03-20T15:11:52;6.05;;;4.65;;
16179;SDS011;8196;49.428;10.906;2023-03-20T15:14:22;4.60;;;4.03;;
16179;SDS011;8196;49.428;10.906;2023-03-20T15:16:56;8.48;;;4.72;;
16179;SDS011;8196;49.428;10.906;2023-03-20T15:19:24;6.88;;;4.72;;
16179;SDS011;8196;49.428;10.906;2023-03-20T15:21:51;5.10;;;4.45;;
16179;SDS011;8196;49.428;10.906;2023-03-20T15:24:21;5.18;;;4.25;;
16179;SDS011;8196;49.428;10.906;2023-03-20T15:26:54;7.28;;;4.88;;
16179;SDS011;8196;49.428;10.906;2023-03-20T15:29:24;6.18;;;4.75;;
16179;SDS011;8196;49.428;10.906;2023-03-20T15:31:54;6.13;;;4.88;;
16179;SDS011;8196;49.428;10.906;2023-03-20T15:34:38;5.63;;;4.63;;
16179;SDS011;8196;49.428;10.906;2023-03-20T15:37:08;6.75;;;4.93;;
16179;SDS011;8196;49.428;10.906;2023-03-20T15:39:47;5.82;;;4.35;;
16179;SDS011;8196;49.428;10.906;2023-03-20T15:42:18;6.88;;;5.10;;
16179;SDS011;8196;49.428;10.906;2023-03-20T15:44:47;7.93;;;5.78;;
16179;SDS011;8196;49.428;10.906;2023-03-20T15:47:16;6.43;;;5.00;;
16179;SDS011;8196;49.428;10.906;2023-03-20T15:49:48;9.93;;;6.65;;
16179;SDS011;8196;49.428;10.906;2023-03-20T15:54:47;8.65;;;6.30;;
16179;SDS011;8196;49.428;10.906;2023-03-20T15:57:18;7.22;;;5.35;;
16179;SDS011;8196;49.428;10.906;2023-03-20T15:59:50;6.15;;;4.45;;
16179;SDS011;8196;49.428;10.906;2023-03-20T16:02:17;6.30;;;4.90;;
16179;SDS011;8196;49.428;10.906;2023-03-20T16:04:45;7.25;;;5.22;;
16179;SDS011;8196;49.428;10.906;2023-03-20T16:07:31;6.68;;;5.50;;
16179;SDS011;8196;49.428;10.906;2023-03-20T16:09:58;6.95;;;5.15;;
16179;SDS011;8196;49.428;10.906;2023-03-20T16:12:25;7.40;;;4.97;;
16179;SDS011;8196;49.428;10.906;2023-03-20T16:14:53;12.38;;;7.30;;
16179;SDS011;8196;49.428;10.906;2023-03-20T16:17:21;8.45;;;5.43;;
16179;SDS011;8196;49.428;10.906;2023-03-20T16:19:50;8.25;;;5.93;;
16179;SDS011;8196;49.428;10.906;2023-03-20T16:22:19;5.68;;;4.78;;
16179;SDS011;8196;49.428;10.906;2023-03-20T16:24:53;8.48;;;5.20;;
16179;SDS011;8196;49.428;10.906;2023-03-20T16:27:28;5.43;;;4.60;;
16179;SDS011;8196;49.428;10.906;2023-03-20T16:29:57;6.82;;;4.60;;
16179;SDS011;8196;49.428;10.906;2023-03-20T16:32:31;5.72;;;4.72;;
16179;SDS011;8196;49.428;10.906;2023-03-20T16:35:02;5.93;;;4.80;;
16179;SDS011;8196;49.428;10.906;2023-03-20T16:37:40;6.43;;;4.80;;
16179;SDS011;8196;49.428;10.906;2023-03-20T16:40:12;5.35;;;4.40;;
16179;SDS011;8196;49.428;10.906;2023-03-20T16:42:53;6.22;;;4.72;;
16179;SDS011;8196;49.428;10.906;2023-03-20T16:47:50;5.97;;;4.40;;
16179;SDS011;8196;49.428;10.906;2023-03-20T16:50:37;6.00;;;4.13;;
16179;SDS011;8196;49.428;10.906;2023-03-20T16:53:10;5.90;;;4.38;;
16179;SDS011;8196;49.428;10.906;2023-03-20T16:55:43;5.55;;;4.60;;
16179;SDS011;8196;49.428;10.906;2023-03-20T16:58:13;5.38;;;4.25;;
16179;SDS011;8196;49.428;10.906;2023-03-20T17:03:19;7.68;;;4.68;;
16179;SDS011;8196;49.428;10.906;2023-03-20T17:08:26;7.65;;;5.00;;
16179;SDS011;8196;49.428;10.906;2023-03-20T17:10:57;6.57;;;5.32;;
16179;SDS011;8196;49.428;10.906;2023-03-20T17:13:28;10.75;;;6.40;;
16179;SDS011;8196;49.428;10.906;2023-03-20T17:15:54;22.55;;;13.88;;
16179;SDS011;8196;49.428;10.906;2023-03-20T17:18:21;32.80;;;20.05;;